Time;durP1;ratioP1;P1;durP2;ratioP2;P2;SDS_P1;SDS_P2;PMS_P1;PMS_P2;Temp;Humidity;BMP_temperature;BMP_pressure;BME280_temperature;BME280_humidity;BME280_pressure;Samples;Min_cycle;Max_cycle;Signal;HPM_P1;HPM_P2
2022/09/13 00:00:13;;;;;;;950.97;887.22;;;;;;;17.75;61.14;100815.69;688638;28;67487;-63
2022/09/13 00:00:36;;;;;;;958.78;894.78;;;;;;;17.74;61.11;100816.72;689384;28;44385;-64
2022/09/13 00:00:58;;;;;;;946.25;882.75;;;;;;;17.72;61.12;100810.66;689230;28;44349;-63
2022/09/13 00:01:20;;;;;;;952.47;888.80;;;;;;;17.71;61.22;100806.25;689354;28;44365;-65
2022/09/13 00:01:41;;;;;;;955.50;891.70;;;;;;;17.70;61.01;100810.06;689209;28;44392;-63
2022/09/13 00:02:02;;;;;;;944.10;880.58;;;;;;;17.70;61.24;100810.88;691691;28;22378;-63
2022/09/13 00:02:24;;;;;;;947.97;884.42;;;;;;;17.70;61.22;100816.34;692903;28;22316;-63
2022/09/13 00:02:45;;;;;;;956.05;892.25;;;;;;;17.69;61.17;100809.19;691041;28;46301;-62
2022/09/13 00:03:07;;;;;;;956.22;892.45;;;;;;;17.68;61.29;100807.53;690158;28;21543;-62
2022/09/13 00:03:29;;;;;;;958.03;894.22;;;;;;;17.66;61.26;100809.63;690008;28;46491;-63
2022/09/13 00:03:51;;;;;;;955.42;891.63;;;;;;;17.64;61.35;100806.31;689257;28;46375;-63
2022/09/13 00:04:12;;;;;;;959.03;895.10;;;;;;;17.65;61.24;100813.44;690125;28;46377;-63
2022/09/13 00:04:33;;;;;;;948.05;884.45;;;;;;;17.64;61.55;100801.66;690018;28;23478;-63
2022/09/13 00:04:55;;;;;;;949.95;886.35;;;;;;;17.63;61.74;100805.47;689292;28;46221;-63
2022/09/13 00:05:16;;;;;;;954.50;890.63;;;;;;;17.62;61.48;100803.81;690125;28;23425;-63
2022/09/13 00:05:39;;;;;;;961.53;897.38;;;;;;;17.61;61.56;100802.13;690135;28;23694;-63
2022/09/13 00:06:06;;;;;;;958.75;894.60;;;;;;;17.62;61.59;100803.81;688337;28;69609;-63
2022/09/13 00:06:27;;;;;;;956.78;892.88;;;;;;;17.63;61.59;100799.16;685501;28;159223;-62
2022/09/13 00:06:50;;;;;;;964.22;900.05;;;;;;;17.62;61.56;100798.34;689091;28;46418;-65
2022/09/13 00:07:11;;;;;;;964.30;899.80;;;;;;;17.64;61.73;100801.66;691440;28;45048;-63
2022/09/13 00:07:32;;;;;;;959.50;895.40;;;;;;;17.66;61.85;100801.44;692189;28;23531;-63
2022/09/13 00:07:54;;;;;;;957.58;893.58;;;;;;;17.67;61.65;100803.13;689782;28;22485;-63
2022/09/13 00:08:15;;;;;;;953.50;889.70;;;;;;;17.68;61.77;100798.50;689495;28;44397;-63
2022/09/13 00:08:38;;;;;;;953.60;889.80;;;;;;;17.69;61.69;100801.00;690030;28;22373;-63
2022/09/13 00:09:00;;;;;;;956.63;892.72;;;;;;;17.69;61.67;100797.44;688493;28;67471;-63
2022/09/13 00:09:21;;;;;;;951.33;887.53;;;;;;;17.70;61.52;100799.13;691320;28;45323;-63
2022/09/13 00:09:42;;;;;;;956.75;892.80;;;;;;;17.71;61.68;100796.19;692735;28;23476;-64
2022/09/13 00:10:04;;;;;;;957.22;893.22;;;;;;;17.73;61.58;100791.31;692478;28;21532;-63
2022/09/13 00:10:27;;;;;;;951.58;887.88;;;;;;;17.71;61.45;100790.72;691808;28;46285;-64
2022/09/13 00:10:48;;;;;;;952.20;888.40;;;;;;;17.75;61.56;100797.38;690857;28;67597;-63
2022/09/13 00:11:14;;;;;;;952.92;889.22;;;;;;;17.76;61.45;100792.78;692571;28;21197;-64
2022/09/13 00:11:35;;;;;;;947.17;883.72;;;;;;;17.78;61.38;100787.91;688581;28;137887;-64
2022/09/13 00:11:56;;;;;;;952.03;888.35;;;;;;;17.79;61.60;100795.03;682137;28;23506;-64
2022/09/13 00:12:18;;;;;;;955.42;891.67;;;;;;;17.81;61.36;100791.03;690110;28;23549;-63
2022/09/13 00:12:40;;;;;;;959.80;895.88;;;;;;;17.81;61.33;100787.47;688013;28;68293;-63
2022/09/13 00:13:01;;;;;;;960.05;895.95;;;;;;;17.81;61.34;100790.19;689913;28;20901;-64
2022/09/13 00:13:22;;;;;;;947.80;884.35;;;;;;;17.83;61.26;100788.91;687468;28;22406;-64
2022/09/13 00:13:43;;;;;;;947.20;883.83;;;;;;;17.84;61.12;100787.84;687153;28;22401;-64
2022/09/13 00:14:06;;;;;;;955.35;891.47;;;;;;;17.82;60.97;100783.66;684443;28;46274;-64
2022/09/13 00:14:27;;;;;;;951.47;887.55;;;;;;;17.84;60.93;100787.84;686181;28;46324;-64
2022/09/13 00:14:48;;;;;;;953.80;889.92;;;;;;;17.85;60.96;100785.94;687135;28;23539;-63
2022/09/13 00:15:11;;;;;;;951.22;887.63;;;;;;;17.84;60.76;100787.03;687408;28;23812;-64
2022/09/13 00:15:32;;;;;;;959.08;895.05;;;;;;;17.84;60.85;100790.59;687991;28;67466;-64
2022/09/13 00:15:54;;;;;;;959.90;895.90;;;;;;;17.82;60.89;100787.25;689759;28;23503;-64
2022/09/13 00:16:17;;;;;;;959.75;895.65;;;;;;;17.82;60.47;100795.44;689982;28;46745;-65
2022/09/13 00:16:38;;;;;;;964.13;899.95;;;;;;;17.75;60.95;100774.69;689383;28;68306;-64
2022/09/13 00:17:00;;;;;;;956.85;892.65;;;;;;;17.79;61.14;100787.69;689633;28;4753;-64
2022/09/13 00:17:22;;;;;;;952.97;888.78;;;;;;;17.78;60.91;100794.19;690692;28;22398;-64
2022/09/13 00:17:43;;;;;;;955.17;891.17;;;;;;;17.76;60.83;100788.13;692011;28;44405;-64
2022/09/13 00:18:04;;;;;;;957.95;894.05;;;;;;;17.75;60.83;100794.66;692798;28;21532;-64
2022/09/13 00:18:25;;;;;;;961.78;897.70;;;;;;;17.74;60.86;100792.16;691831;28;46362;-64
2022/09/13 00:18:48;;;;;;;958.55;894.45;;;;;;;17.73;61.00;100790.50;692806;28;23435;-64
2022/09/13 00:19:09;;;;;;;953.80;890.00;;;;;;;17.73;61.06;100793.22;691812;28;45235;-64
2022/09/13 00:19:30;;;;;;;951.85;888.13;;;;;;;17.72;60.87;100791.53;692812;28;22411;-64
2022/09/13 00:19:51;;;;;;;943.25;879.83;;;;;;;17.71;61.04;100789.84;692846;28;23328;-64
2022/09/13 00:20:14;;;;;;;954.40;890.65;;;;;;;17.68;60.94;100782.97;692967;28;22400;-63
2022/09/13 00:20:35;;;;;;;956.97;893.05;;;;;;;17.69;61.02;100786.53;690790;28;67468;-63
2022/09/13 00:21:04;;;;;;;947.20;883.60;;;;;;;17.68;61.05;100791.16;692744;28;22376;-64
2022/09/13 00:21:25;;;;;;;957.00;893.15;;;;;;;17.64;60.99;100782.56;686139;28;137879;-63
2022/09/13 00:21:47;;;;;;;954.97;891.22;;;;;;;17.64;61.17;100785.28;689356;28;21551;-62
2022/09/13 00:22:08;;;;;;;957.60;893.67;;;;;;;17.65;61.36;100783.41;686325;28;46296;-62
2022/09/13 00:22:30;;;;;;;954.00;890.17;;;;;;;17.64;61.12;100782.56;686465;28;44448;-62
2022/09/13 00:22:51;;;;;;;947.60;883.92;;;;;;;17.62;61.08;100779.22;687240;28;22387;-63
2022/09/13 00:23:13;;;;;;;941.95;878.63;;;;;;;17.60;61.17;100781.34;687359;28;22395;-62
2022/09/13 00:23:34;;;;;;;955.63;891.67;;;;;;;17.60;61.00;100780.50;686626;28;46317;-63
2022/09/13 00:23:56;;;;;;;955.17;891.28;;;;;;;17.56;61.39;100776.56;686617;28;44378;-62
2022/09/13 00:24:17;;;;;;;963.13;899.10;;;;;;;17.56;61.51;100769.19;687406;28;23468;-63
2022/09/13 00:24:39;;;;;;;953.53;889.83;;;;;;;17.58;61.19;100772.53;687317;28;22065;-63
2022/09/13 00:25:00;;;;;;;952.97;889.08;;;;;;;17.57;61.15;100770.88;686608;28;45220;-63
2022/09/13 00:25:21;;;;;;;954.63;890.72;;;;;;;17.58;61.45;100767.06;686736;28;46322;-63
2022/09/13 00:25:43;;;;;;;954.75;890.85;;;;;;;17.59;61.44;100768.75;690060;28;22396;-63
2022/09/13 00:26:06;;;;;;;952.08;888.33;;;;;;;17.61;61.44;100769.34;689907;28;22393;-63
2022/09/13 00:26:29;;;;;;;949.28;885.70;;;;;;;17.63;61.70;100777.31;687550;28;90361;-62
2022/09/13 00:26:50;;;;;;;952.25;888.58;;;;;;;17.63;61.68;100767.25;689121;28;45232;-63
2022/09/13 00:27:11;;;;;;;955.55;891.30;;;;;;;17.65;61.28;100764.28;691269;28;44364;-64
2022/09/13 00:27:34;;;;;;;954.85;890.95;;;;;;;17.67;61.41;100769.53;692662;28;22337;-63
2022/09/13 00:27:55;;;;;;;952.20;888.35;;;;;;;17.69;61.59;100760.03;691237;28;38725;-63
2022/09/13 00:28:17;;;;;;;953.50;889.60;;;;;;;17.71;61.22;100770.75;687471;28;22390;-63
2022/09/13 00:28:38;;;;;;;950.45;886.65;;;;;;;17.74;61.35;100773.88;686241;28;44279;-63
2022/09/13 00:28:59;;;;;;;953.28;889.38;;;;;;;17.75;61.34;100769.25;686173;28;45230;-63
2022/09/13 00:29:20;;;;;;;946.13;882.53;;;;;;;17.77;61.24;100778.91;687046;28;23485;-63
2022/09/13 00:29:43;;;;;;;943.10;879.67;;;;;;;17.77;60.95;100772.56;687191;28;22402;-63
2022/09/13 00:30:05;;;;;;;952.63;888.90;;;;;;;17.77;60.98;100769.84;684952;28;43201;-63
2022/09/13 00:30:28;;;;;;;955.67;891.88;;;;;;;17.76;60.97;100779.94;683173;28;67480;-63
2022/09/13 00:30:51;;;;;;;952.30;888.63;;;;;;;17.77;60.98;100773.44;682747;28;69225;-63
2022/09/13 00:31:13;;;;;;;952.95;889.28;;;;;;;17.75;60.97;100778.25;683576;28;45255;-63
2022/09/13 00:31:34;;;;;;;953.97;890.20;;;;;;;17.75;60.95;100771.97;684595;28;46448;-63
2022/09/13 00:31:57;;;;;;;949.83;886.20;;;;;;;17.73;60.97;100774.94;690354;28;14251;-64
2022/09/13 00:32:18;;;;;;;945.97;882.67;;;;;;;17.72;61.04;100773.25;687354;28;66841;-62
2022/09/13 00:32:40;;;;;;;949.78;886.38;;;;;;;17.71;61.05;100773.47;687248;28;45328;-62
2022/09/13 00:33:03;;;;;;;954.85;891.17;;;;;;;17.70;60.94;100771.81;687238;28;22394;-63
2022/09/13 00:33:24;;;;;;;960.08;896.17;;;;;;;17.68;61.01;100766.56;685836;28;69570;-63
2022/09/13 00:33:46;;;;;;;954.53;890.75;;;;;;;17.67;61.14;100773.09;687473;28;45302;-63
2022/09/13 00:34:07;;;;;;;948.30;884.80;;;;;;;17.67;61.06;100769.53;690085;28;22378;-63
2022/09/13 00:34:29;;;;;;;943.35;879.90;;;;;;;17.65;61.34;100764.28;690140;28;22421;-62
2022/09/13 00:34:50;;;;;;;951.20;887.50;;;;;;;17.64;61.13;100768.06;688463;28;70216;-63
2022/09/13 00:35:11;;;;;;;947.88;884.35;;;;;;;17.62;61.29;100762.84;690003;28;21829;-63
2022/09/13 00:35:34;;;;;;;948.20;884.55;;;;;;;17.60;61.20;100762.22;689959;28;23437;-63
2022/09/13 00:35:56;;;;;;;950.90;887.20;;;;;;;17.60;61.26;100767.69;688511;28;68369;-63
2022/09/13 00:36:18;;;;;;;947.80;884.20;;;;;;;17.59;61.44;100768.75;689330;28;45205;-63
2022/09/13 00:36:39;;;;;;;947.42;883.72;;;;;;;17.59;61.22;100768.75;690115;28;21523;-62
2022/09/13 00:37:00;;;;;;;948.00;884.35;;;;;;;17.57;61.38;100762.69;688839;28;21474;-62
2022/09/13 00:37:22;;;;;;;955.50;891.60;;;;;;;17.56;61.41;100769.19;689635;28;22411;-62
2022/09/13 00:37:43;;;;;;;956.47;892.55;;;;;;;17.57;61.42;100767.28;688879;28;46388;-62
2022/09/13 00:38:04;;;;;;;953.92;890.05;;;;;;;17.56;61.45;100765.63;690186;28;9118;-62
2022/09/13 00:38:26;;;;;;;942.17;878.78;;;;;;;17.54;61.39;100759.53;689865;28;22380;-63
2022/09/13 00:38:47;;;;;;;945.78;882.17;;;;;;;17.54;61.31;100763.13;689702;28;22389;-62
2022/09/13 00:39:09;;;;;;;952.53;888.67;;;;;;;17.52;61.33;100761.66;689295;28;22409;-62
2022/09/13 00:39:30;;;;;;;955.00;891.00;;;;;;;17.50;61.36;100767.34;685809;28;69279;-62
2022/09/13 00:39:52;;;;;;;953.50;889.63;;;;;;;17.48;61.57;100759.38;687094;28;22358;-63
2022/09/13 00:40:13;;;;;;;959.72;895.67;;;;;;;17.46;61.48;100755.19;687420;28;22410;-62
2022/09/13 00:40:36;;;;;;;964.05;899.85;;;;;;;17.45;61.49;100754.34;688176;28;915;-63
2022/09/13 00:40:58;;;;;;;954.45;890.55;;;;;;;17.45;61.73;100756.25;684956;28;92100;-62
2022/09/13 00:41:20;;;;;;;952.00;888.15;;;;;;;17.44;61.67;100754.56;686570;28;44374;-62
2022/09/13 00:41:41;;;;;;;953.42;889.63;;;;;;;17.42;61.84;100754.81;687453;28;22400;-63
2022/09/13 00:42:02;;;;;;;952.83;889.03;;;;;;;17.44;61.71;100751.84;685993;28;46215;-62
2022/09/13 00:42:25;;;;;;;949.70;886.15;;;;;;;17.45;61.88;100751.63;690208;28;22385;-62
2022/09/13 00:42:47;;;;;;;953.22;889.42;;;;;;;17.45;61.92;100748.06;689016;28;44499;-63
2022/09/13 00:43:11;;;;;;;953.85;889.88;;;;;;;17.45;61.90;100742.59;686988;28;68360;-63
2022/09/13 00:43:44;;;;;;;957.53;893.63;;;;;;;17.45;61.89;100757.09;684933;28;92094;-62
2022/09/13 00:44:40;;;;;;;952.58;888.78;;;;;;;17.45;61.81;100745.34;683010;28;137122;-63
2022/09/13 00:45:07;;;;;;;952.83;889.03;;;;;;;17.46;61.91;100742.38;683274;28;160603;-63
2022/09/13 00:45:29;;;;;;;952.75;888.95;;;;;;;17.46;61.84;100744.25;687784;28;161011;-63
2022/09/13 00:45:50;;;;;;;950.20;886.58;;;;;;;17.45;61.80;100743.44;690764;28;69445;-63
2022/09/13 00:46:17;;;;;;;945.97;882.40;;;;;;;17.45;61.86;100740.69;689967;28;22357;-63
2022/09/13 00:46:42;;;;;;;950.75;886.92;;;;;;;17.43;61.75;100731.91;686057;28;137823;-63
2022/09/13 00:47:03;;;;;;;950.75;886.72;;;;;;;17.46;61.87;100736.94;686394;28;90752;-63
2022/09/13 00:47:31;;;;;;;946.35;882.42;;;;;;;17.48;61.75;100728.50;688912;28;44367;-63
2022/09/13 00:47:56;;;;;;;950.45;886.72;;;;;;;17.48;61.81;100726.59;686059;28;136339;-64
2022/09/13 00:48:20;;;;;;;953.85;890.00;;;;;;;17.51;61.81;100727.22;684155;28;136239;-64
2022/09/13 00:48:43;;;;;;;951.28;887.58;;;;;;;17.50;61.60;100723.66;685061;28;92163;-63
2022/09/13 00:49:11;;;;;;;953.47;889.55;;;;;;;17.52;61.83;100726.16;685708;28;69400;-63
2022/09/13 00:49:36;;;;;;;951.67;887.78;;;;;;;17.50;61.71;100718.19;683359;28;137569;-63
2022/09/13 00:50:01;;;;;;;953.97;890.17;;;;;;;17.53;61.57;100720.47;684065;28;111153;-65
2022/09/13 00:50:24;;;;;;;962.55;898.45;;;;;;;17.56;61.69;100724.66;684780;28;89054;-65
2022/09/13 00:50:49;;;;;;;948.80;885.28;;;;;;;17.56;61.46;100720.03;684718;28;92158;-63
2022/09/13 00:51:11;;;;;;;942.67;879.38;;;;;;;17.51;61.60;100711.69;683923;28;116115;-63
2022/09/13 00:51:32;;;;;;;946.28;882.92;;;;;;;17.56;61.48;100722.75;687056;28;22364;-62
2022/09/13 00:51:58;;;;;;;948.65;885.13;;;;;;;17.57;61.31;100718.97;685669;28;45007;-62
2022/09/13 00:52:21;;;;;;;957.17;893.30;;;;;;;17.60;61.58;100723.13;683508;28;138448;-65
2022/09/13 00:52:45;;;;;;;955.03;891.30;;;;;;;17.58;61.61;100720.63;685683;28;72616;-63
2022/09/13 00:53:09;;;;;;;954.85;891.05;;;;;;;17.61;61.48;100722.91;686064;28;93277;-63
2022/09/13 00:53:33;;;;;;;951.58;887.78;;;;;;;17.62;61.50;100731.97;688046;28;69398;-63
2022/09/13 00:53:55;;;;;;;948.35;884.60;;;;;;;17.63;61.57;100715.34;686241;28;115091;-64
2022/09/13 00:54:19;;;;;;;950.35;886.58;;;;;;;17.64;61.29;100717.00;689131;28;44358;-62
2022/09/13 00:54:43;;;;;;;957.13;893.20;;;;;;;17.64;61.28;100713.44;687228;28;92949;-62
2022/09/13 00:55:07;;;;;;;956.65;892.65;;;;;;;17.62;61.10;100721.88;687389;28;92306;-62
2022/09/13 00:55:33;;;;;;;951.45;887.75;;;;;;;17.63;61.21;100714.50;687688;28;93345;-63
2022/09/13 00:55:57;;;;;;;955.55;891.53;;;;;;;17.64;61.11;100718.91;685984;28;137953;-63
2022/09/13 00:56:21;;;;;;;958.70;894.67;;;;;;;17.64;61.22;100714.28;686087;28;90104;-64
2022/09/13 00:56:45;;;;;;;946.95;883.35;;;;;;;17.64;61.08;100717.00;684855;28;93445;-64
2022/09/13 00:57:09;;;;;;;959.30;895.00;;;;;;;17.67;60.98;100709.44;682963;28;110494;-64
2022/09/13 00:57:32;;;;;;;958.85;894.72;;;;;;;17.71;60.92;100713.38;684994;28;90441;-63
2022/09/13 00:57:58;;;;;;;962.85;898.47;;;;;;;17.72;60.97;100710.41;685916;28;69415;-63
2022/09/13 00:58:22;;;;;;;960.90;896.80;;;;;;;17.75;60.97;100711.88;686115;28;137919;-63
2022/09/13 00:58:47;;;;;;;946.35;882.88;;;;;;;17.75;60.77;100704.50;687634;28;93086;-63
2022/09/13 00:59:12;;;;;;;948.17;884.63;;;;;;;17.75;60.85;100709.16;686619;28;115156;-64
2022/09/13 00:59:38;;;;;;;954.17;890.22;;;;;;;17.75;60.75;100701.78;686864;28;115402;-64
2022/09/13 01:00:07;;;;;;;954.83;890.92;;;;;;;17.75;60.59;100712.69;685908;28;136415;-64
2022/09/13 01:00:30;;;;;;;956.40;892.40;;;;;;;17.76;60.78;100711.66;685933;28;137878;-64
2022/09/13 01:00:53;;;;;;;954.45;890.53;;;;;;;17.76;60.63;100705.38;688359;28;70162;-64
2022/09/13 01:01:16;;;;;;;957.42;893.42;;;;;;;17.74;60.79;100705.59;690333;28;56227;-64
2022/09/13 01:01:41;;;;;;;954.50;890.67;;;;;;;17.75;60.51;100712.69;690823;28;69366;-64
2022/09/13 01:02:03;;;;;;;949.38;885.60;;;;;;;17.74;60.50;100702.00;687364;28;113564;-64
2022/09/13 01:02:25;;;;;;;950.28;886.50;;;;;;;17.76;60.59;100703.47;689094;28;45235;-64
2022/09/13 01:02:50;;;;;;;949.20;885.53;;;;;;;17.76;60.43;100705.38;689122;28;44415;-64
2022/09/13 01:03:13;;;;;;;947.65;884.10;;;;;;;17.75;60.59;100704.50;686070;28;114956;-62
2022/09/13 01:03:35;;;;;;;954.55;890.70;;;;;;;17.75;60.54;100700.97;688287;28;69467;-63
2022/09/13 01:03:56;;;;;;;953.75;889.97;;;;;;;17.75;60.70;100700.97;689126;28;46347;-63
2022/09/13 01:04:21;;;;;;;951.50;887.75;;;;;;;17.75;60.68;100695.50;690691;28;877;-63
2022/09/13 01:04:43;;;;;;;943.08;879.63;;;;;;;17.73;60.64;100700.34;687705;28;92159;-64
2022/09/13 01:05:05;;;;;;;946.17;882.58;;;;;;;17.74;60.62;100702.00;688784;28;44404;-62
2022/09/13 01:05:29;;;;;;;957.28;893.22;;;;;;;17.74;60.61;100697.41;688949;28;45225;-61
2022/09/13 01:05:53;;;;;;;951.20;887.50;;;;;;;17.75;60.78;100700.97;687341;28;92253;-64
2022/09/13 01:06:16;;;;;;;951.40;887.60;;;;;;;17.75;60.83;100700.97;687283;28;92366;-63
2022/09/13 01:06:42;;;;;;;955.00;891.20;;;;;;;17.74;60.52;100702.00;688548;28;59635;-64
2022/09/13 01:07:06;;;;;;;948.17;884.17;;;;;;;17.73;60.67;100694.88;687026;28;69315;-62
2022/09/13 01:07:27;;;;;;;950.13;886.30;;;;;;;17.74;60.45;100704.75;687506;28;92405;-64
2022/09/13 01:07:51;;;;;;;942.80;879.30;;;;;;;17.73;60.68;100700.34;690387;28;9967;-63
2022/09/13 01:08:21;;;;;;;953.25;889.40;;;;;;;17.75;60.70;100700.97;687606;28;91870;-63
2022/09/13 01:08:45;;;;;;;953.03;889.33;;;;;;;17.78;60.45;100700.50;685978;28;139030;-63
2022/09/13 01:09:06;;;;;;;947.35;883.80;;;;;;;17.78;60.65;100697.78;687526;28;93271;-63
2022/09/13 01:09:29;;;;;;;951.50;887.93;;;;;;;17.80;60.58;100701.09;689923;28;23474;-63
2022/09/13 01:09:50;;;;;;;943.22;879.83;;;;;;;17.79;60.39;100694.81;688423;28;69423;-63
2022/09/13 01:10:12;;;;;;;944.30;881.08;;;;;;;17.78;60.38;100695.03;689784;28;22403;-67
2022/09/13 01:10:34;;;;;;;948.88;885.47;;;;;;;17.77;60.17;100696.09;689248;28;45281;-63
2022/09/13 01:10:58;;;;;;;947.13;883.75;;;;;;;17.75;60.47;100695.50;688356;28;69570;-63
2022/09/13 01:11:32;;;;;;;942.65;879.35;;;;;;;17.74;60.40;100699.28;687740;28;90713;-64
2022/09/13 01:12:02;;;;;;;945.55;882.15;;;;;;;17.78;60.50;100695.03;685291;28;135845;-64
2022/09/13 01:12:30;;;;;;;944.28;880.78;;;;;;;17.81;60.57;100692.69;686968;28;86165;-64
2022/09/13 01:12:55;;;;;;;947.17;883.35;;;;;;;17.84;60.33;100697.69;680390;28;137744;-64
2022/09/13 01:13:19;;;;;;;946.30;882.30;;;;;;;17.80;60.06;100685.53;682211;28;81678;-64
2022/09/13 01:13:41;;;;;;;953.40;889.08;;;;;;;17.84;60.02;100692.22;679929;29;73547;-63
2022/09/13 01:14:04;;;;;;;949.38;885.45;;;;;;;17.86;60.07;100689.28;682222;29;1020;-63
2022/09/13 01:14:27;;;;;;;941.83;878.35;;;;;;;17.86;60.03;100694.72;683361;28;47419;-63
2022/09/13 01:14:51;;;;;;;941.20;877.78;;;;;;;17.87;60.19;100690.09;684426;28;69208;-64
2022/09/13 01:15:13;;;;;;;943.65;880.22;;;;;;;17.90;59.97;100701.47;683940;28;113177;-63
2022/09/13 01:15:36;;;;;;;938.42;875.33;;;;;;;17.89;60.16;100694.31;688340;28;23170;-63
2022/09/13 01:15:58;;;;;;;942.58;879.15;;;;;;;17.88;59.75;100695.38;688119;28;69317;-63
2022/09/13 01:16:25;;;;;;;947.97;884.47;;;;;;;17.87;59.80;100693.69;686488;28;61522;-63
2022/09/13 01:16:46;;;;;;;950.78;887.17;;;;;;;17.86;59.97;100699.38;686578;28;23482;-63
2022/09/13 01:17:08;;;;;;;958.60;894.40;;;;;;;17.82;59.79;100688.03;688596;28;46584;-62
2022/09/13 01:17:32;;;;;;;952.22;888.42;;;;;;;17.82;59.95;100701.69;689968;28;22388;-63
2022/09/13 01:17:53;;;;;;;945.88;882.47;;;;;;;17.79;60.05;100694.81;687529;28;92235;-63
2022/09/13 01:18:15;;;;;;;952.55;888.78;;;;;;;17.74;60.17;100689.19;689692;28;22377;-63
2022/09/13 01:18:36;;;;;;;948.13;884.47;;;;;;;17.77;60.16;100696.94;689760;28;22263;-63
2022/09/13 01:18:57;;;;;;;943.92;880.47;;;;;;;17.75;60.34;100701.78;689695;28;23442;-63
2022/09/13 01:19:20;;;;;;;943.77;880.27;;;;;;;17.73;60.17;100695.72;689518;28;22425;-63
2022/09/13 01:19:41;;;;;;;939.45;876.00;;;;;;;17.70;60.45;100698.91;687745;28;67541;-63
2022/09/13 01:20:04;;;;;;;952.05;888.08;;;;;;;17.69;60.25;100697.22;689230;28;24630;-63
2022/09/13 01:20:39;;;;;;;945.97;882.40;;;;;;;17.65;60.53;100693.28;688240;28;69429;-64
2022/09/13 01:21:33;;;;;;;945.47;881.97;;;;;;;17.63;60.54;100696.25;686092;28;136022;-63
2022/09/13 01:22:11;;;;;;;940.45;877.20;;;;;;;17.61;60.97;100692.88;683863;28;135906;-64
2022/09/13 01:23:07;;;;;;;947.85;884.30;;;;;;;17.58;61.09;100687.88;685996;28;137336;-62
2022/09/13 01:24:03;;;;;;;941.35;878.08;;;;;;;17.56;61.15;100698.19;685987;28;137584;-62
2022/09/13 01:24:42;;;;;;;940.53;877.28;;;;;;;17.50;60.96;100684.59;680042;28;160633;-63
2022/09/13 01:25:34;;;;;;;948.22;884.47;;;;;;;17.49;60.87;100683.75;684858;28;162636;-63
2022/09/13 01:26:29;;;;;;;940.10;876.88;;;;;;;17.47;61.13;100683.97;685905;28;134512;-62
2022/09/13 01:27:14;;;;;;;941.95;878.67;;;;;;;17.48;61.26;100679.38;685085;28;137720;-63
2022/09/13 01:27:42;;;;;;;949.75;886.05;;;;;;;17.48;61.15;100684.81;686567;28;137696;-64
2022/09/13 01:28:21;;;;;;;944.03;880.50;;;;;;;17.49;61.34;100683.75;687964;28;136204;-64
2022/09/13 01:28:58;;;;;;;952.70;889.10;;;;;;;17.47;61.40;100681.25;689177;28;136805;-63
2022/09/13 01:29:51;;;;;;;938.22;875.10;;;;;;;17.48;61.19;100690.28;689062;28;137556;-63
2022/09/13 01:30:16;;;;;;;940.10;876.90;;;;;;;17.50;60.89;100690.06;686706;28;137534;-64
2022/09/13 01:30:41;;;;;;;937.90;874.83;;;;;;;17.51;61.08;100687.09;689221;28;137902;-64
2022/09/13 01:31:07;;;;;;;947.50;884.00;;;;;;;17.51;61.21;100683.53;690737;28;92241;-64
2022/09/13 01:31:33;;;;;;;946.20;882.70;;;;;;;17.50;61.20;100679.13;686680;28;137909;-62
2022/09/13 01:32:02;;;;;;;952.00;888.25;;;;;;;17.51;61.13;100678.06;684494;28;136355;-63
2022/09/13 01:32:29;;;;;;;939.42;876.08;;;;;;;17.51;61.12;100678.91;685807;28;160288;-64
2022/09/13 01:33:01;;;;;;;944.70;881.17;;;;;;;17.50;61.03;100679.97;686366;28;138032;-63
2022/09/13 01:33:34;;;;;;;942.60;879.28;;;;;;;17.49;61.25;100678.28;684939;28;160816;-64
2022/09/13 01:34:06;;;;;;;946.30;882.78;;;;;;;17.49;60.88;100670.09;686483;28;137745;-64
2022/09/13 01:34:35;;;;;;;937.58;874.30;;;;;;;17.51;61.27;100680.78;686299;28;136821;-64
2022/09/13 01:35:03;;;;;;;948.30;884.70;;;;;;;17.52;61.25;100677.84;686650;28;136446;-64
2022/09/13 01:35:37;;;;;;;937.60;874.33;;;;;;;17.53;61.10;100687.72;686420;28;136296;-63
2022/09/13 01:36:12;;;;;;;936.97;873.75;;;;;;;17.55;61.11;100680.13;686301;28;137732;-63
2022/09/13 01:36:43;;;;;;;943.83;880.42;;;;;;;17.56;61.07;100689.16;683825;28;137533;-63
2022/09/13 01:37:30;;;;;;;939.75;876.38;;;;;;;17.57;61.06;100688.94;682313;28;138450;-64
2022/09/13 01:37:54;;;;;;;938.38;875.15;;;;;;;17.55;60.92;100680.13;685479;28;137529;-62
2022/09/13 01:38:36;;;;;;;943.67;880.13;;;;;;;17.55;60.79;100688.31;687234;28;116523;-63
2022/09/13 01:39:02;;;;;;;944.20;880.83;;;;;;;17.54;60.82;100683.06;686494;28;136103;-64
2022/09/13 01:39:31;;;;;;;943.28;879.75;;;;;;;17.42;60.88;100670.16;684672;28;113655;-63
2022/09/13 01:40:03;;;;;;;930.75;867.65;;;;;;;17.50;60.93;100682.69;683667;28;138403;-63
2022/09/13 01:40:34;;;;;;;929.45;866.53;;;;;;;17.48;60.94;100690.28;684591;28;114202;-63
2022/09/13 01:41:03;;;;;;;943.47;880.10;;;;;;;17.46;60.80;100681.47;683731;28;137714;-64
2022/09/13 01:41:41;;;;;;;936.22;873.05;;;;;;;17.45;60.87;100693.47;683905;28;137880;-64
2022/09/13 01:42:11;;;;;;;937.97;874.75;;;;;;;17.41;60.99;100684.03;685171;28;135986;-63
2022/09/13 01:42:42;;;;;;;944.90;881.40;;;;;;;17.40;60.92;100693.31;686410;28;137703;-64
2022/09/13 01:43:14;;;;;;;938.25;874.85;;;;;;;17.38;61.03;100688.06;684244;28;137542;-63
2022/09/13 01:43:50;;;;;;;940.60;877.30;;;;;;;17.35;61.07;100691.25;688731;28;62660;-63
2022/09/13 01:44:20;;;;;;;931.47;868.30;;;;;;;17.33;61.12;100689.78;686208;28;135829;-63
2022/09/13 01:44:55;;;;;;;939.05;875.80;;;;;;;17.30;61.21;100691.06;685508;28;160855;-64
2022/09/13 01:45:26;;;;;;;935.22;872.00;;;;;;;17.27;61.35;100684.16;686300;28;137104;-64
2022/09/13 01:45:52;;;;;;;943.35;879.85;;;;;;;17.28;61.46;100685.00;685431;28;160770;-61
2022/09/13 01:46:17;;;;;;;946.50;882.92;;;;;;;17.26;61.34;100682.50;686556;28;137828;-63
2022/09/13 01:46:45;;;;;;;946.13;882.63;;;;;;;17.21;61.58;100668.69;687371;28;115111;-63
2022/09/13 01:47:11;;;;;;;955.65;891.38;;;;;;;17.28;61.62;100680.38;686360;28;180594;-63
2022/09/13 01:47:37;;;;;;;957.55;893.53;;;;;;;17.29;61.56;100670.31;687696;28;137876;-63
2022/09/13 01:48:01;;;;;;;958.17;894.17;;;;;;;17.32;61.56;100664.41;686361;28;137793;-63
2022/09/13 01:48:29;;;;;;;942.03;878.67;;;;;;;17.34;61.50;100675.91;688145;28;90317;-64
2022/09/13 01:48:56;;;;;;;950.47;887.03;;;;;;;17.35;61.40;100658.50;686641;28;137984;-63
2022/09/13 01:49:19;;;;;;;942.95;879.67;;;;;;;17.37;61.52;100661.00;686505;28;136066;-63
2022/09/13 01:49:45;;;;;;;942.38;879.17;;;;;;;17.39;61.32;100662.41;688889;28;69540;-63
2022/09/13 01:50:13;;;;;;;946.95;883.55;;;;;;;17.39;61.03;100667.88;686312;28;138278;-63
2022/09/13 01:50:39;;;;;;;950.75;887.15;;;;;;;17.40;61.03;100666.84;686514;28;138031;-63
2022/09/13 01:51:03;;;;;;;949.25;885.55;;;;;;;17.39;61.18;100667.88;685630;28;160994;-63
2022/09/13 01:51:28;;;;;;;947.95;884.35;;;;;;;17.40;61.21;100671.47;687345;28;113555;-63
2022/09/13 01:51:54;;;;;;;942.40;879.10;;;;;;;17.41;61.19;100670.38;686522;28;113701;-63
2022/09/13 01:52:20;;;;;;;944.55;880.97;;;;;;;17.41;61.13;100671.25;686573;28;136387;-63